London Corbin Airport Magee Field London US
ICAO: KLOZ
IATA: LOZ
Category: Medium
Scheduled Services: No

Elevation: 1212 ft
TransAlt. 18000 ft.

Airport Communications:
ASOS:119.075
INDIANAPOLIS CNTR:121.325
LOUISVILLE RDO:122.2
CTAF/UNICOM:123

KLOZ Zoom In..

If you have problems with the map follow the link
https://www.worldairports.se/pages/airport.php?
ICAO=KLOZ

Runways:

(A) RW 06 length 5751 ft width 150 ft
ILS 110.90 / hdg 57

(B) RW 24 length 5751 ft width 150 ft
---- / hdg 237

Location; KLOZ
Day. 21 / Time. 08.53 Zulu
* Altimeter: 30.28
* Temperature: 01° c. 33.8°f.
* Wind from: 320° Speed 04 kn.
Dewpoint: -03° c.
Visibility: 10 Statute Miles.
Clouds: Broken 3200 ft.

KLOZ 210853Z AUTO 32004KT 10SM BKN032 01/M03 A3028 RMK AO2 SLP253 T00111028 53014 $


Wind From 320°
Speed 04 kn.

 
 
jpsmedia.com for Web Design worldairports.se 2018   terms of use